Terminal Aerodrome Forecast
Issued by NWS Quad Cities IA IL

Home | Current Version | Previous Version | Text Only | Print | Product List | Glossary On
Versions: 1 2 3 4 5 6 7 8 9 10 11 12 13 14 15 16
000
FTUS43 KDVN 261138
TAFDBQ
TAF
KDBQ 261138Z 2612/2712 29015G25KT P6SM BKN100 OVC200
     FM261500 22010KT P6SM SCT050 PROB30 2700/2703 4SM TSRA BKN040CB
     FM270300 18005KT P6SM VCTS BKN040CB=

USA.gov is the U.S. government's official web portal to all federal, state and local government web resources and services.